createdAt,value
2023-03-21T00:00:57.729Z,10.18
2023-03-21T00:03:26.584Z,12.18
2023-03-21T00:05:55.502Z,13.18
2023-03-21T00:08:24.462Z,14.60
2023-03-21T00:10:57.364Z,15.65
2023-03-21T00:13:26.554Z,12.05
2023-03-21T00:18:46.561Z,12.35
2023-03-21T00:24:05.040Z,6.20
2023-03-21T00:26:33.481Z,9.02
2023-03-21T00:29:01.926Z,9.98
2023-03-21T00:31:31.753Z,10.95
2023-03-21T00:34:00.227Z,9.80
2023-03-21T00:36:28.793Z,12.63
2023-03-21T00:38:57.452Z,8.98
2023-03-21T00:41:40.986Z,11.70
2023-03-21T00:44:11.633Z,8.07
2023-03-21T00:46:54.486Z,14.43
2023-03-21T00:49:25.956Z,11.63
2023-03-21T00:51:55.283Z,10.55
2023-03-21T00:54:26.052Z,11.45
2023-03-21T00:56:54.533Z,13.20
2023-03-21T00:59:23.024Z,10.40
2023-03-21T01:01:53.709Z,11.05
2023-03-21T01:04:26.595Z,16.90
2023-03-21T01:06:55.553Z,12.18
2023-03-21T01:09:25.473Z,14.15
2023-03-21T01:11:54.171Z,10.05
2023-03-21T01:14:24.158Z,13.63
2023-03-21T01:16:54.584Z,11.55
2023-03-21T01:19:40.591Z,14.88
2023-03-21T01:22:13.200Z,13.80
2023-03-21T01:24:52.503Z,12.60
2023-03-21T01:27:23.831Z,12.55
2023-03-21T01:29:52.261Z,18.23
2023-03-21T01:32:22.190Z,14.40
2023-03-21T01:34:50.749Z,12.60
2023-03-21T01:37:20.017Z,13.45
2023-03-21T01:39:48.538Z,14.98
2023-03-21T01:42:17.117Z,14.48
2023-03-21T01:44:55.777Z,16.00
2023-03-21T01:47:25.615Z,15.80
2023-03-21T01:49:56.650Z,15.68
2023-03-21T01:52:36.596Z,14.38
2023-03-21T01:55:07.020Z,12.07
2023-03-21T01:57:49.440Z,10.48
2023-03-21T02:00:26.050Z,15.65
2023-03-21T02:03:06.107Z,16.48
2023-03-21T02:05:43.017Z,11.93
2023-03-21T02:08:13.250Z,16.33
2023-03-21T02:10:42.958Z,13.85
2023-03-21T02:13:11.644Z,15.95
2023-03-21T02:15:40.873Z,16.48
2023-03-21T02:18:16.054Z,15.15
2023-03-21T02:21:17.425Z,13.88
2023-03-21T02:23:57.735Z,16.60
2023-03-21T02:26:45.133Z,17.15
2023-03-21T02:29:24.274Z,14.65
2023-03-21T02:32:06.003Z,15.18
2023-03-21T02:35:00.750Z,13.30
2023-03-21T02:37:38.409Z,17.02
2023-03-21T02:40:12.228Z,14.65
2023-03-21T02:42:54.708Z,14.65
2023-03-21T02:45:28.300Z,15.77
2023-03-21T02:47:58.656Z,14.32
2023-03-21T02:50:29.982Z,17.63
2023-03-21T02:53:00.906Z,16.00
2023-03-21T02:55:31.582Z,14.60
2023-03-21T02:58:11.695Z,17.30
2023-03-21T03:00:42.931Z,14.40
2023-03-21T03:03:20.727Z,16.05
2023-03-21T03:05:58.759Z,14.57
2023-03-21T03:08:43.192Z,12.77
2023-03-21T03:11:22.492Z,15.50
2023-03-21T03:14:21.404Z,11.48
2023-03-21T03:17:00.623Z,16.60
2023-03-21T03:19:32.749Z,14.23
2023-03-21T03:22:08.451Z,14.43
2023-03-21T03:24:40.597Z,14.32
2023-03-21T03:27:10.730Z,16.92
2023-03-21T03:29:40.878Z,19.77
2023-03-21T03:32:12.305Z,17.83
2023-03-21T03:34:42.345Z,15.23
2023-03-21T03:37:12.989Z,14.68
2023-03-21T03:39:45.826Z,15.23
2023-03-21T03:42:27.718Z,16.02
2023-03-21T03:44:57.555Z,13.90
2023-03-21T03:47:33.676Z,14.38
2023-03-21T03:50:09.875Z,14.60
2023-03-21T03:52:50.076Z,11.50
2023-03-21T03:55:27.099Z,13.45
2023-03-21T03:57:56.092Z,14.45
2023-03-21T04:00:25.574Z,13.25
2023-03-21T04:02:54.048Z,16.65
2023-03-21T04:05:22.604Z,14.25
2023-03-21T04:07:51.306Z,17.00
2023-03-21T04:10:20.144Z,15.63
2023-03-21T04:12:50.039Z,16.60
2023-03-21T04:15:19.132Z,15.73
2023-03-21T04:17:47.932Z,15.02
2023-03-21T04:20:23.789Z,12.95
2023-03-21T04:22:58.716Z,11.38
2023-03-21T04:25:33.769Z,11.98
2023-03-21T04:28:04.205Z,14.05
2023-03-21T04:30:34.203Z,16.25
2023-03-21T04:33:02.659Z,14.68
2023-03-21T04:35:31.216Z,13.52
2023-03-21T04:37:59.677Z,9.98
2023-03-21T04:40:28.340Z,14.73
2023-03-21T04:42:56.917Z,17.23
2023-03-21T04:45:26.747Z,13.75
2023-03-21T04:47:55.987Z,15.98
2023-03-21T04:50:24.452Z,15.95
2023-03-21T04:52:52.912Z,17.15
2023-03-21T04:55:21.699Z,20.73
2023-03-21T04:57:50.322Z,15.05
2023-03-21T05:00:19.069Z,17.60
2023-03-21T05:02:48.876Z,17.50
2023-03-21T05:05:17.258Z,13.80
2023-03-21T05:07:45.691Z,11.73
2023-03-21T05:10:14.798Z,17.52
2023-03-21T05:12:43.399Z,17.58
2023-03-21T05:15:12.030Z,15.50
2023-03-21T05:17:42.732Z,18.38
2023-03-21T05:20:16.091Z,16.58
2023-03-21T05:22:46.282Z,16.02
2023-03-21T05:25:18.085Z,14.10
2023-03-21T05:27:54.171Z,14.02
2023-03-21T05:30:22.758Z,13.82
2023-03-21T05:32:51.214Z,18.05
2023-03-21T05:35:21.108Z,11.07
2023-03-21T05:37:49.621Z,17.75
2023-03-21T05:40:18.088Z,16.13
2023-03-21T05:42:47.529Z,18.33
2023-03-21T05:45:16.604Z,13.15
2023-03-21T05:47:45.233Z,16.02
2023-03-21T05:50:14.591Z,15.52
2023-03-21T05:52:44.432Z,14.95
2023-03-21T05:55:12.896Z,18.42
2023-03-21T05:57:41.344Z,13.32
2023-03-21T06:00:10.668Z,16.40
2023-03-21T06:02:39.965Z,14.35
2023-03-21T06:05:08.815Z,17.80
2023-03-21T06:07:38.272Z,12.95
2023-03-21T06:10:08.909Z,16.42
2023-03-21T06:12:37.469Z,15.15
2023-03-21T06:15:06.132Z,15.00
2023-03-21T06:17:34.838Z,14.88
2023-03-21T06:20:05.075Z,13.55
2023-03-21T06:22:33.733Z,17.30
2023-03-21T06:25:02.200Z,14.32
2023-03-21T06:27:32.107Z,11.27
2023-03-21T06:30:00.567Z,14.93
2023-03-21T06:32:29.079Z,16.08
2023-03-21T06:34:57.520Z,13.02
2023-03-21T06:37:26.895Z,13.13
2023-03-21T06:39:55.758Z,14.02
2023-03-21T06:42:24.293Z,11.75
2023-03-21T06:44:54.119Z,16.45
2023-03-21T06:47:22.591Z,15.75
2023-03-21T06:49:51.586Z,19.13
2023-03-21T06:52:20.128Z,15.55
2023-03-21T06:54:48.590Z,14.82
2023-03-21T06:57:18.070Z,14.60
2023-03-21T06:59:46.675Z,13.68
2023-03-21T07:02:16.686Z,13.38
2023-03-21T07:04:45.206Z,19.27
2023-03-21T07:07:13.618Z,14.35
2023-03-21T07:09:42.554Z,14.13
2023-03-21T07:12:11.199Z,17.90
2023-03-21T07:14:39.637Z,14.75
2023-03-21T07:17:08.038Z,12.45
2023-03-21T07:19:37.912Z,14.10
2023-03-21T07:22:06.387Z,13.55
2023-03-21T07:24:34.842Z,15.10
2023-03-21T07:27:03.326Z,17.90
2023-03-21T07:29:31.936Z,14.25
2023-03-21T07:32:00.413Z,16.10
2023-03-21T07:34:33.296Z,16.10
2023-03-21T07:37:03.115Z,14.80
2023-03-21T07:39:33.063Z,18.20
2023-03-21T07:42:02.027Z,13.57
2023-03-21T07:44:30.680Z,19.85
2023-03-21T07:46:59.081Z,14.80
2023-03-21T07:49:27.958Z,13.27
2023-03-21T07:51:56.399Z,16.27
2023-03-21T07:54:28.606Z,13.98
2023-03-21T07:56:57.089Z,13.20
2023-03-21T07:59:26.078Z,12.00
2023-03-21T08:01:54.717Z,11.75
2023-03-21T08:04:23.697Z,13.48
2023-03-21T08:06:52.492Z,14.80
2023-03-21T08:09:21.152Z,14.60
2023-03-21T08:11:51.143Z,8.68
2023-03-21T08:14:19.689Z,12.10
2023-03-21T08:16:48.132Z,13.65
2023-03-21T08:19:18.759Z,11.90
2023-03-21T08:21:47.384Z,12.23
2023-03-21T08:24:15.858Z,14.10
2023-03-21T08:26:46.062Z,10.20
2023-03-21T08:29:16.193Z,16.30
2023-03-21T08:31:44.633Z,14.25
2023-03-21T08:34:13.747Z,14.70
2023-03-21T08:36:42.206Z,11.07
2023-03-21T08:39:10.671Z,12.23
2023-03-21T08:41:39.805Z,12.73
2023-03-21T08:44:09.764Z,13.00
2023-03-21T08:46:39.615Z,14.25
2023-03-21T08:49:08.086Z,14.55
2023-03-21T08:51:37.692Z,13.35
2023-03-21T08:54:06.667Z,14.15
2023-03-21T08:56:37.330Z,16.55
2023-03-21T08:59:06.199Z,16.08
2023-03-21T09:01:34.733Z,15.38
2023-03-21T09:04:08.185Z,14.70
2023-03-21T09:06:36.744Z,11.13
2023-03-21T09:09:07.857Z,17.50
2023-03-21T09:11:36.501Z,12.32
2023-03-21T09:14:04.931Z,14.65
2023-03-21T09:16:33.613Z,16.77
2023-03-21T09:19:03.390Z,13.27
2023-03-21T09:21:33.758Z,14.13
2023-03-21T09:24:02.939Z,14.38
2023-03-21T09:26:31.657Z,14.25
2023-03-21T09:29:00.807Z,14.63
2023-03-21T09:31:29.836Z,21.13
2023-03-21T09:33:58.982Z,14.63
2023-03-21T09:36:28.287Z,15.15
2023-03-21T09:38:59.778Z,14.73
2023-03-21T09:41:33.972Z,18.10
2023-03-21T09:44:09.117Z,13.77
2023-03-21T09:46:43.417Z,13.27
2023-03-21T09:49:15.784Z,14.52
2023-03-21T09:51:47.953Z,15.80
2023-03-21T09:54:22.678Z,18.65
2023-03-21T09:56:52.964Z,15.43
2023-03-21T09:59:25.117Z,15.52
2023-03-21T10:01:55.335Z,19.40
2023-03-21T10:04:25.192Z,16.85
2023-03-21T10:06:57.086Z,20.00
2023-03-21T10:09:28.347Z,19.75
2023-03-21T10:11:59.173Z,17.65
2023-03-21T10:14:30.026Z,16.08
2023-03-21T10:17:00.396Z,15.30
2023-03-21T10:19:29.267Z,17.77
2023-03-21T10:22:03.001Z,17.20
2023-03-21T10:24:35.056Z,16.77
2023-03-21T10:27:04.513Z,17.35
2023-03-21T10:29:37.192Z,13.23
2023-03-21T10:32:05.839Z,19.45
2023-03-21T10:34:38.523Z,16.45
2023-03-21T10:37:07.356Z,18.35
2023-03-21T10:39:38.795Z,13.60
2023-03-21T10:42:07.415Z,18.23
2023-03-21T10:44:36.566Z,14.65
2023-03-21T10:47:07.771Z,16.60
2023-03-21T10:49:56.417Z,13.07
2023-03-21T10:52:29.148Z,18.90
2023-03-21T10:55:09.621Z,16.85
2023-03-21T10:57:38.932Z,14.95
2023-03-21T11:00:17.089Z,16.65
2023-03-21T11:02:49.743Z,14.25
2023-03-21T11:05:22.548Z,15.85
2023-03-21T11:07:57.631Z,17.75
2023-03-21T11:10:31.236Z,14.30
2023-03-21T11:13:00.076Z,14.55
2023-03-21T11:15:30.709Z,13.95
2023-03-21T11:17:59.547Z,16.27
2023-03-21T11:20:28.590Z,10.38
2023-03-21T11:22:57.788Z,16.60
2023-03-21T11:25:29.383Z,13.88
2023-03-21T11:27:59.265Z,11.65
2023-03-21T11:30:28.750Z,11.73
2023-03-21T11:32:58.328Z,14.73
2023-03-21T11:35:29.982Z,12.43
2023-03-21T11:37:58.602Z,13.98
2023-03-21T11:40:28.331Z,11.70
2023-03-21T11:42:57.716Z,11.27
2023-03-21T11:45:28.709Z,11.52
2023-03-21T11:47:58.148Z,12.02
2023-03-21T11:50:29.472Z,9.65
2023-03-21T11:53:04.116Z,11.13
2023-03-21T11:55:41.781Z,11.43
2023-03-21T11:58:24.579Z,8.82
2023-03-21T12:00:57.391Z,10.48
2023-03-21T12:03:49.078Z,11.93
2023-03-21T12:06:24.487Z,10.95
2023-03-21T12:08:56.024Z,9.75
2023-03-21T12:11:30.486Z,7.65
2023-03-21T12:14:02.663Z,8.43
2023-03-21T12:16:41.534Z,9.02
2023-03-21T12:19:27.155Z,9.82
2023-03-21T12:21:59.684Z,7.30
2023-03-21T12:24:33.239Z,9.02
2023-03-21T12:27:04.879Z,10.23
2023-03-21T12:29:42.404Z,7.72
2023-03-21T12:32:19.552Z,6.55
2023-03-21T12:34:58.482Z,8.75
2023-03-21T12:37:30.663Z,6.63
2023-03-21T12:40:07.379Z,8.63
2023-03-21T12:42:49.925Z,10.10
2023-03-21T12:45:20.573Z,7.75
2023-03-21T12:47:52.021Z,8.32
2023-03-21T12:50:22.997Z,10.15
2023-03-21T12:52:53.121Z,8.65
2023-03-21T12:55:23.320Z,9.18
2023-03-21T12:57:57.753Z,9.93
2023-03-21T13:00:28.264Z,7.10
2023-03-21T13:03:00.688Z,7.45
2023-03-21T13:05:30.606Z,7.70
2023-03-21T13:08:01.265Z,10.15
2023-03-21T13:10:29.745Z,9.32
2023-03-21T13:13:03.474Z,11.18
2023-03-21T13:15:38.906Z,7.65
2023-03-21T13:18:14.270Z,8.18
2023-03-21T13:20:45.882Z,7.63
2023-03-21T13:23:14.631Z,8.00
2023-03-21T13:25:48.813Z,6.88
2023-03-21T13:28:21.294Z,6.90
2023-03-21T13:30:50.250Z,8.18
2023-03-21T13:33:24.786Z,9.38
2023-03-21T13:36:05.649Z,7.82
2023-03-21T13:38:35.273Z,9.43
2023-03-21T13:41:07.380Z,8.35
2023-03-21T13:43:53.546Z,7.93
2023-03-21T13:46:52.206Z,6.10
2023-03-21T13:49:29.241Z,7.13
2023-03-21T13:51:59.187Z,7.90
2023-03-21T13:54:41.588Z,7.43
2023-03-21T13:57:22.785Z,8.68
2023-03-21T13:59:51.261Z,7.40
2023-03-21T14:02:24.497Z,8.10
2023-03-21T14:05:06.644Z,6.93
2023-03-21T14:07:36.847Z,6.40
2023-03-21T14:10:07.598Z,10.23
2023-03-21T14:12:40.110Z,9.50
2023-03-21T14:15:16.742Z,9.15
2023-03-21T14:17:51.663Z,8.80
2023-03-21T14:20:24.049Z,10.18
2023-03-21T14:22:52.761Z,8.02
2023-03-21T14:25:24.367Z,5.63
2023-03-21T14:27:55.791Z,8.27
2023-03-21T14:30:26.611Z,6.90
2023-03-21T14:32:56.690Z,8.45
2023-03-21T14:35:27.937Z,6.78
2023-03-21T14:37:57.227Z,8.15
2023-03-21T14:40:26.701Z,7.07
2023-03-21T14:42:56.056Z,6.10
2023-03-21T14:45:25.706Z,7.47
2023-03-21T14:47:58.744Z,5.60
2023-03-21T14:50:31.664Z,9.38
2023-03-21T14:53:00.919Z,7.85
2023-03-21T14:55:29.488Z,7.85
2023-03-21T14:57:58.215Z,6.50
2023-03-21T15:00:28.617Z,6.47
2023-03-21T15:02:59.740Z,8.85
2023-03-21T15:05:31.884Z,6.45
2023-03-21T15:08:01.330Z,7.45
2023-03-21T15:10:31.833Z,8.35
2023-03-21T15:13:01.614Z,6.57
2023-03-21T15:15:30.762Z,6.93
2023-03-21T15:18:02.750Z,7.78
2023-03-21T15:20:34.363Z,6.95
2023-03-21T15:23:04.740Z,6.18
2023-03-21T15:25:36.051Z,7.20
2023-03-21T15:28:05.569Z,8.65
2023-03-21T15:30:35.315Z,6.05
2023-03-21T15:33:08.438Z,7.13
2023-03-21T15:35:40.580Z,4.78
2023-03-21T15:38:09.570Z,6.18
2023-03-21T15:40:38.525Z,6.45
2023-03-21T15:43:07.766Z,5.05
2023-03-21T15:45:36.471Z,5.18
2023-03-21T15:48:09.060Z,6.35
2023-03-21T15:50:40.606Z,6.15
2023-03-21T15:53:13.798Z,5.38
2023-03-21T15:55:48.139Z,5.47
2023-03-21T15:58:18.810Z,6.30
2023-03-21T16:00:54.303Z,6.13
2023-03-21T16:03:25.423Z,5.32
2023-03-21T16:06:05.531Z,5.80
2023-03-21T16:08:37.542Z,4.53
2023-03-21T16:11:10.400Z,10.90
2023-03-21T16:13:38.848Z,6.03
2023-03-21T16:16:07.818Z,5.90
2023-03-21T16:18:36.331Z,6.38
2023-03-21T16:21:06.534Z,6.55
2023-03-21T16:23:34.981Z,5.45
2023-03-21T16:26:05.157Z,8.13
2023-03-21T16:28:34.155Z,8.35
2023-03-21T16:31:02.562Z,5.15
2023-03-21T16:33:31.033Z,6.13
2023-03-21T16:36:00.867Z,6.60
2023-03-21T16:38:30.845Z,6.13
2023-03-21T16:41:00.901Z,9.10
2023-03-21T16:43:29.348Z,10.77
2023-03-21T16:45:57.906Z,7.75
2023-03-21T16:48:26.427Z,8.18
2023-03-21T16:50:54.899Z,6.10
2023-03-21T16:53:23.334Z,6.32
2023-03-21T16:55:54.065Z,7.03
2023-03-21T16:58:22.546Z,8.50
2023-03-21T17:00:50.986Z,9.82
2023-03-21T17:03:19.950Z,7.00
2023-03-21T17:05:48.441Z,7.88
2023-03-21T17:08:17.698Z,6.53
2023-03-21T17:10:46.517Z,5.55
2023-03-21T17:13:16.344Z,6.78
2023-03-21T17:15:44.738Z,8.30
2023-03-21T17:18:14.007Z,8.07
2023-03-21T17:20:42.443Z,6.65
2023-03-21T17:23:11.015Z,8.85
2023-03-21T17:25:39.481Z,8.77
2023-03-21T17:28:07.946Z,9.07
2023-03-21T17:30:40.028Z,8.32
2023-03-21T17:33:08.943Z,7.95
2023-03-21T17:35:37.470Z,8.50
2023-03-21T17:38:06.233Z,8.55
2023-03-21T17:40:35.966Z,5.90
2023-03-21T17:43:04.621Z,6.82
2023-03-21T17:45:33.132Z,9.13
2023-03-21T17:48:02.968Z,6.65
2023-03-21T17:50:37.085Z,7.75
2023-03-21T17:53:06.040Z,5.65
2023-03-21T17:55:35.405Z,5.88
2023-03-21T17:58:05.585Z,9.02
2023-03-21T18:00:34.365Z,9.80
2023-03-21T18:03:04.181Z,9.02
2023-03-21T18:05:33.726Z,6.38
2023-03-21T18:08:10.373Z,6.95
2023-03-21T18:10:39.395Z,8.88
2023-03-21T18:13:08.121Z,7.95
2023-03-21T18:15:38.271Z,6.88
2023-03-21T18:18:08.328Z,8.85
2023-03-21T18:20:54.254Z,9.57
2023-03-21T18:23:23.588Z,6.93
2023-03-21T18:25:53.000Z,6.95
2023-03-21T18:28:21.858Z,9.07
2023-03-21T18:31:07.800Z,6.93
2023-03-21T18:33:40.626Z,11.18
2023-03-21T18:36:09.528Z,8.13
2023-03-21T18:38:38.536Z,5.78
2023-03-21T18:41:07.649Z,7.13
2023-03-21T18:46:24.938Z,8.10
2023-03-21T18:48:55.216Z,6.38
2023-03-21T18:51:24.252Z,6.53
2023-03-21T18:53:52.760Z,6.50
2023-03-21T18:57:19.594Z,9.13
2023-03-21T18:59:10.032Z,8.88
2023-03-21T19:01:38.820Z,6.72
2023-03-21T19:04:21.378Z,6.22
2023-03-21T19:06:53.037Z,8.35
2023-03-21T19:09:29.341Z,4.53
2023-03-21T19:12:00.767Z,8.13
2023-03-21T19:14:29.513Z,6.72
2023-03-21T19:19:48.932Z,5.82
2023-03-21T19:22:17.784Z,8.50
2023-03-21T19:24:47.169Z,7.38
2023-03-21T19:27:15.768Z,6.63
2023-03-21T19:29:56.963Z,7.20
2023-03-21T19:32:31.542Z,7.93
2023-03-21T19:35:01.603Z,7.05
2023-03-21T19:37:30.360Z,9.55
2023-03-21T19:39:58.862Z,8.40
2023-03-21T19:42:29.260Z,6.97
2023-03-21T19:44:59.048Z,9.70
2023-03-21T19:47:27.560Z,7.68
2023-03-21T19:50:42.096Z,7.65
2023-03-21T19:52:46.215Z,7.45
2023-03-21T19:55:15.482Z,5.90
2023-03-21T19:57:44.050Z,6.32
2023-03-21T20:00:13.059Z,11.90
2023-03-21T20:02:43.582Z,7.20
2023-03-21T20:05:12.029Z,7.80
2023-03-21T20:07:40.596Z,5.60
2023-03-21T20:10:11.784Z,6.80
2023-03-21T20:12:40.528Z,8.27
2023-03-21T20:15:17.799Z,8.63
2023-03-21T20:17:48.176Z,6.88
2023-03-21T20:20:17.630Z,7.35
2023-03-21T20:23:07.299Z,8.88
2023-03-21T20:25:38.162Z,7.50
2023-03-21T20:28:15.806Z,8.30
2023-03-21T20:30:48.754Z,9.25
2023-03-21T20:33:17.737Z,7.65
2023-03-21T20:36:29.494Z,7.57
2023-03-21T20:38:35.554Z,9.88
2023-03-21T20:41:06.447Z,8.90
2023-03-21T20:46:23.427Z,7.85
2023-03-21T20:48:51.886Z,8.02
2023-03-21T20:54:09.647Z,11.63
2023-03-21T20:56:39.590Z,9.00
2023-03-21T20:59:17.692Z,8.13
2023-03-21T21:01:53.390Z,10.63
2023-03-21T21:04:23.123Z,9.00
2023-03-21T21:06:55.807Z,9.10
2023-03-21T21:09:24.410Z,11.27
2023-03-21T21:12:10.763Z,8.15
2023-03-21T21:14:39.754Z,9.70
2023-03-21T21:17:24.427Z,8.63
2023-03-21T21:19:57.014Z,10.50
2023-03-21T21:22:25.910Z,9.10
2023-03-21T21:24:54.368Z,9.95
2023-03-21T21:27:25.099Z,10.55
2023-03-21T21:29:53.542Z,8.90
2023-03-21T21:32:21.968Z,8.90
2023-03-21T21:34:50.500Z,11.88
2023-03-21T21:37:19.011Z,9.02
2023-03-21T21:39:47.879Z,8.10
2023-03-21T21:42:16.994Z,7.60
2023-03-21T21:44:47.413Z,9.00
2023-03-21T21:47:16.369Z,7.68
2023-03-21T21:49:45.959Z,8.85
2023-03-21T21:52:14.434Z,9.75
2023-03-21T21:54:45.975Z,7.47
2023-03-21T21:57:19.072Z,6.57
2023-03-21T21:59:54.125Z,7.22
2023-03-21T22:02:25.766Z,7.05
2023-03-21T22:04:57.088Z,7.78
2023-03-21T22:07:28.349Z,7.65
2023-03-21T22:09:57.861Z,9.45
2023-03-21T22:12:26.848Z,9.45
2023-03-21T22:14:56.999Z,6.78
2023-03-21T22:17:25.600Z,9.63
2023-03-21T22:20:04.999Z,6.30
2023-03-21T22:22:35.416Z,8.77
2023-03-21T22:25:04.363Z,8.95
2023-03-21T22:27:32.794Z,7.60
2023-03-21T22:30:05.713Z,12.65
2023-03-21T22:32:34.329Z,5.60
2023-03-21T22:35:03.475Z,8.07
2023-03-21T22:37:32.066Z,9.30
2023-03-21T22:40:00.797Z,6.88
2023-03-21T22:42:29.687Z,5.38
2023-03-21T22:44:58.566Z,7.72
2023-03-21T22:47:28.566Z,6.93
2023-03-21T22:49:57.539Z,7.35
2023-03-21T22:52:26.467Z,6.97
2023-03-21T22:54:54.888Z,7.00
2023-03-21T22:57:23.461Z,6.18
2023-03-21T22:59:52.139Z,7.65
2023-03-21T23:02:20.861Z,7.43
2023-03-21T23:04:50.659Z,6.40
2023-03-21T23:07:19.116Z,6.93
2023-03-21T23:09:47.632Z,7.28
2023-03-21T23:12:16.859Z,8.57
2023-03-21T23:14:45.264Z,7.65
2023-03-21T23:17:13.742Z,7.55
2023-03-21T23:19:42.143Z,7.13
2023-03-21T23:22:11.978Z,9.10
2023-03-21T23:24:40.415Z,9.75
2023-03-21T23:27:08.900Z,8.93
2023-03-21T23:29:37.330Z,9.73
2023-03-21T23:32:06.238Z,8.15
2023-03-21T23:34:35.347Z,7.00
2023-03-21T23:37:03.823Z,8.98
2023-03-21T23:39:34.543Z,6.65
2023-03-21T23:42:03.196Z,7.32
2023-03-21T23:44:31.660Z,8.90
2023-03-21T23:47:00.462Z,10.02
2023-03-21T23:49:28.961Z,7.22
2023-03-21T23:51:57.543Z,6.57
2023-03-21T23:54:25.957Z,7.05
2023-03-21T23:56:55.894Z,8.15
2023-03-21T23:59:24.551Z,8.10
